Time;durP1;ratioP1;P1;durP2;ratioP2;P2;SDS_P1;SDS_P2;PMS_P1;PMS_P2;Temp;Humidity;BMP_temperature;BMP_pressure;BME280_temperature;BME280_humidity;BME280_pressure;Samples;Min_cycle;Max_cycle;Signal;HPM_P1;HPM_P2
2022/01/11 00:02:06;;;;;;;299.45;50.40;;;;;;;-0.63;100.00;102486.94;5035511;28;20081;-81
2022/01/11 00:04:40;;;;;;;259.90;51.08;;;;;;;-0.86;100.00;102453.25;5020157;28;20072;-82
2022/01/11 00:07:11;;;;;;;255.27;47.13;;;;;;;-0.77;100.00;102459.00;5043595;23;20109;-83
2022/01/11 00:09:41;;;;;;;242.73;48.72;;;;;;;-0.58;100.00;102497.97;5001375;28;20057;-81
2022/01/11 00:12:10;;;;;;;224.80;50.75;;;;;;;-0.63;100.00;102489.53;5021262;28;20049;-82
2022/01/11 00:14:38;;;;;;;183.18;45.65;;;;;;;-0.60;100.00;102486.88;5002241;28;20050;-81
2022/01/11 00:17:08;;;;;;;215.10;48.30;;;;;;;-0.59;100.00;102488.56;5002958;28;20073;-82
2022/01/11 00:19:35;;;;;;;244.63;48.65;;;;;;;-0.74;100.00;102478.66;4985209;28;20051;-81
2022/01/11 00:22:14;;;;;;;197.93;43.35;;;;;;;-0.72;100.00;102493.16;4982746;28;20062;-82
2022/01/11 00:24:42;;;;;;;201.88;44.10;;;;;;;-0.65;100.00;102504.13;4984121;28;20057;-81
2022/01/11 00:27:11;;;;;;;203.05;44.22;;;;;;;-0.75;100.00;102487.25;4982629;28;20138;-81
2022/01/11 00:29:41;;;;;;;204.32;44.50;;;;;;;-0.78;100.00;102482.19;4982393;28;20054;-82
2022/01/11 00:32:14;;;;;;;226.25;46.38;;;;;;;-0.73;100.00;102498.34;4971664;28;20478;-82
2022/01/11 00:34:50;;;;;;;254.50;46.58;;;;;;;-0.74;100.00;102504.38;4966781;28;20051;-82
2022/01/11 00:37:16;;;;;;;203.65;44.65;;;;;;;-0.75;100.00;102494.97;4961236;28;20043;-80
2022/01/11 00:39:45;;;;;;;187.02;46.15;;;;;;;-0.69;100.00;102502.53;4957639;28;20062;-80
2022/01/11 00:42:13;;;;;;;171.85;44.25;;;;;;;-0.53;100.00;102503.84;4957866;28;20054;-79
2022/01/11 00:44:39;;;;;;;193.00;46.17;;;;;;;-0.65;100.00;102501.56;4958560;28;20158;-80
2022/01/11 00:47:10;;;;;;;158.07;43.35;;;;;;;-0.61;100.00;102492.91;4961181;29;20371;-79
2022/01/11 00:49:39;;;;;;;181.50;45.03;;;;;;;-0.64;100.00;102498.13;4960942;29;20120;-79
2022/01/11 00:52:07;;;;;;;177.55;42.42;;;;;;;-0.64;100.00;102498.13;4971323;28;20050;-79
2022/01/11 00:54:35;;;;;;;200.25;45.33;;;;;;;-0.70;100.00;102493.13;4976165;28;20137;-79
2022/01/11 00:57:05;;;;;;;187.35;47.25;;;;;;;-0.59;100.00;102496.28;4976721;28;20059;-80
2022/01/11 00:59:32;;;;;;;215.52;48.08;;;;;;;-0.73;100.00;102496.63;4978468;28;20057;-83
2022/01/11 01:01:59;;;;;;;211.75;47.92;;;;;;;-0.65;100.00;102503.28;4982521;28;20242;-83
2022/01/11 01:04:30;;;;;;;203.23;48.53;;;;;;;-0.61;100.00;102489.47;4983185;28;20189;-82
2022/01/11 01:06:57;;;;;;;227.55;49.47;;;;;;;-0.71;100.00;102500.00;4982882;28;20109;-82
2022/01/11 01:09:27;;;;;;;234.60;51.05;;;;;;;-0.66;100.00;102505.03;4982061;28;20137;-81
2022/01/11 01:11:53;;;;;;;232.77;52.28;;;;;;;-0.58;100.00;102510.81;4983153;28;20047;-82
2022/01/11 01:14:21;;;;;;;221.13;52.85;;;;;;;-0.56;100.00;102514.19;4984133;28;20586;-83
2022/01/11 01:16:51;;;;;;;217.60;52.10;;;;;;;-0.64;100.00;102516.09;4983595;28;20102;-81
2022/01/11 01:19:19;;;;;;;224.80;52.83;;;;;;;-0.58;100.00;102520.25;4984372;28;20050;-80
2022/01/11 01:21:49;;;;;;;207.77;50.10;;;;;;;-0.55;100.00;102526.16;4981810;28;20050;-82
2022/01/11 01:24:51;;;;;;;206.13;53.10;;;;;;;-0.53;100.00;102523.56;4982471;28;20051;-81
2022/01/11 01:27:18;;;;;;;214.80;52.97;;;;;;;-0.54;100.00;102521.88;4961062;28;20051;-80
2022/01/11 01:29:51;;;;;;;195.50;50.20;;;;;;;-0.48;100.00;102527.72;4979568;28;20061;-82
2022/01/11 01:32:19;;;;;;;194.90;50.20;;;;;;;-0.46;100.00;102527.63;4979354;28;20495;-83
2022/01/11 01:34:58;;;;;;;180.65;49.63;;;;;;;-0.49;100.00;102526.03;4981217;28;20526;-81
2022/01/11 01:37:32;;;;;;;169.45;49.45;;;;;;;-0.46;100.00;102530.22;4981177;28;20046;-82
2022/01/11 01:39:59;;;;;;;164.15;48.63;;;;;;;-0.44;100.00;102534.44;4979292;28;20055;-80
2022/01/11 01:42:29;;;;;;;169.93;49.15;;;;;;;-0.44;100.00;102529.28;4978102;28;20082;-79
2022/01/11 01:44:59;;;;;;;166.98;50.13;;;;;;;-0.48;100.00;102532.00;4978345;28;20062;-79
2022/01/11 01:47:26;;;;;;;169.30;49.75;;;;;;;-0.45;100.00;102544.75;4968414;28;20059;-80
2022/01/11 01:49:53;;;;;;;153.30;48.38;;;;;;;-0.59;100.00;102516.84;4959481;28;20051;-81
2022/01/11 01:52:22;;;;;;;148.88;49.92;;;;;;;-0.43;100.00;102548.97;4957937;28;20493;-79
2022/01/11 01:58:17;;;;;;;150.35;48.47;;;;;;;-0.42;100.00;102555.81;4957015;29;20558;-78
2022/01/11 02:00:51;;;;;;;144.25;49.83;;;;;;;-0.48;100.00;102548.28;4958074;29;20065;-79
2022/01/11 02:03:25;;;;;;;157.98;50.22;;;;;;;-0.42;100.00;102550.66;4958482;29;20056;-81
2022/01/11 02:05:52;;;;;;;152.02;49.10;;;;;;;-0.60;100.00;102525.44;4961584;28;20103;-82
2022/01/11 02:08:21;;;;;;;151.07;50.30;;;;;;;-0.41;100.00;102556.66;4962199;28;20507;-81
2022/01/11 02:10:50;;;;;;;159.77;49.67;;;;;;;-0.44;100.00;102551.59;4958338;28;20054;-80
2022/01/11 02:13:17;;;;;;;141.13;48.17;;;;;;;-0.52;100.00;102528.66;4959171;28;20090;-81
2022/01/11 02:15:44;;;;;;;131.10;46.53;;;;;;;-0.32;100.00;102563.31;4962591;28;20070;-82
2022/01/11 02:18:12;;;;;;;125.30;44.40;;;;;;;-0.56;100.00;102544.22;4964373;28;20087;-81
2022/01/11 02:20:40;;;;;;;134.73;44.17;;;;;;;-0.51;100.00;102579.22;4962354;28;20086;-79
2022/01/11 02:23:07;;;;;;;135.20;44.33;;;;;;;-0.51;100.00;102579.22;4958858;28;20047;-79
2022/01/11 02:25:34;;;;;;;136.57;44.88;;;;;;;-0.52;100.00;102572.38;4959225;29;20061;-79
2022/01/11 02:28:01;;;;;;;123.05;45.35;;;;;;;-0.52;100.00;102569.81;4964344;29;20103;-82
2022/01/11 02:30:32;;;;;;;123.72;43.83;;;;;;;-0.43;100.00;102572.13;4978932;28;20035;-82
2022/01/11 02:32:59;;;;;;;108.43;40.63;;;;;;;-0.41;100.00;102572.09;4979273;28;20035;-81
2022/01/11 02:35:25;;;;;;;132.30;45.28;;;;;;;-0.52;100.00;102582.66;4979459;28;20079;-82
2022/01/11 02:37:54;;;;;;;129.05;46.70;;;;;;;-0.53;100.00;102573.25;4979246;28;20034;-80
2022/01/11 02:40:20;;;;;;;136.52;45.42;;;;;;;-0.52;100.00;102572.38;4979104;28;20460;-81
2022/01/11 02:42:47;;;;;;;136.40;44.88;;;;;;;-0.52;100.00;102580.09;4973836;28;20420;-81
2022/01/11 02:45:16;;;;;;;136.05;43.97;;;;;;;-0.49;100.00;102587.75;4964059;29;20111;-80
2022/01/11 02:47:45;;;;;;;134.05;43.15;;;;;;;-0.58;100.00;102587.97;4963754;28;20111;-79
2022/01/11 02:50:13;;;;;;;137.77;43.50;;;;;;;-0.58;100.00;102589.69;4965759;28;20472;-81
2022/01/11 02:52:42;;;;;;;128.13;43.80;;;;;;;-0.60;100.00;102582.00;4960983;28;20126;-80
2022/01/11 02:55:15;;;;;;;120.97;42.25;;;;;;;-0.47;100.00;102585.09;4961315;28;20600;-81
2022/01/11 02:57:45;;;;;;;126.65;41.30;;;;;;;-0.52;100.00;102587.81;4962457;28;20474;-80
2022/01/11 03:00:15;;;;;;;129.93;41.45;;;;;;;-0.47;100.00;102597.97;4962449;28;20078;-80
2022/01/11 03:02:45;;;;;;;135.48;42.28;;;;;;;-0.57;100.00;102593.94;4961925;28;20119;-80
2022/01/11 03:05:12;;;;;;;156.38;42.90;;;;;;;-0.63;100.00;102584.66;4961727;28;20117;-79
2022/01/11 03:07:39;;;;;;;127.22;42.72;;;;;;;-0.61;100.00;102576.91;4962488;28;20472;-80
2022/01/11 03:10:15;;;;;;;172.00;45.55;;;;;;;-0.61;100.00;102579.47;4960618;28;20130;-79
2022/01/11 03:12:43;;;;;;;149.23;43.50;;;;;;;-0.63;100.00;102588.94;4962176;28;20081;-80
2022/01/11 03:15:11;;;;;;;138.32;43.80;;;;;;;-0.65;100.00;102591.56;4965982;28;20051;-81
2022/01/11 03:17:38;;;;;;;139.68;41.88;;;;;;;-0.68;100.00;102586.47;4961511;28;20427;-82
2022/01/11 03:20:06;;;;;;;148.93;42.90;;;;;;;-0.70;100.00;102593.38;4961787;28;20452;-82
2022/01/11 03:22:33;;;;;;;168.32;43.45;;;;;;;-0.75;100.00;102574.66;4960362;28;20886;-81
2022/01/11 03:24:59;;;;;;;158.48;43.70;;;;;;;-0.72;100.00;102593.41;4960724;28;20130;-83
2022/01/11 03:27:28;;;;;;;150.02;44.47;;;;;;;-0.72;100.00;102584.84;4960218;28;20456;-84
2022/01/11 03:29:55;;;;;;;147.38;45.50;;;;;;;-0.75;100.00;102588.34;4961564;28;20451;-83
2022/01/11 03:32:25;;;;;;;136.80;42.28;;;;;;;-0.66;100.00;102605.28;4961938;28;20142;-83
2022/01/11 03:34:51;;;;;;;149.52;41.95;;;;;;;-0.70;100.00;102601.94;4961946;28;20089;-82
2022/01/11 03:37:20;;;;;;;152.13;42.40;;;;;;;-0.74;100.00;102596.91;4960177;28;20130;-82
2022/01/11 03:39:47;;;;;;;147.20;44.25;;;;;;;-0.73;100.00;102603.72;4960620;28;20143;-82
2022/01/11 03:42:14;;;;;;;152.63;43.30;;;;;;;-0.77;100.00;102608.09;4961329;28;20062;-81
2022/01/11 03:44:41;;;;;;;140.02;41.63;;;;;;;-0.75;100.00;102614.06;4961244;28;20079;-82
2022/01/11 03:47:09;;;;;;;144.15;40.05;;;;;;;-0.77;100.00;102607.25;4957137;28;20075;-82
2022/01/11 03:49:36;;;;;;;139.30;40.40;;;;;;;-0.80;100.00;102609.91;4955237;28;20043;-80
2022/01/11 03:52:03;;;;;;;157.57;42.38;;;;;;;-0.79;100.00;102609.84;4960260;28;20071;-80
2022/01/11 03:54:43;;;;;;;142.40;41.55;;;;;;;-0.80;100.00;102607.31;4960293;28;20106;-80
2022/01/11 03:57:10;;;;;;;131.27;40.88;;;;;;;-0.67;100.00;102614.72;4959916;28;20083;-81
2022/01/11 03:59:37;;;;;;;140.50;40.58;;;;;;;-0.78;100.00;102618.41;4959499;28;20090;-82
2022/01/11 04:02:04;;;;;;;166.02;41.30;;;;;;;-0.83;100.00;102620.25;4961303;28;20119;-81
2022/01/11 04:04:32;;;;;;;150.93;40.35;;;;;;;-0.82;100.00;102627.06;4959827;28;20087;-83
2022/01/11 04:07:00;;;;;;;151.30;39.72;;;;;;;-0.81;100.00;102621.06;4960158;28;20110;-81
2022/01/11 04:09:27;;;;;;;125.20;37.63;;;;;;;-0.77;100.00;102625.25;4959406;28;20051;-80
2022/01/11 04:11:54;;;;;;;148.43;40.67;;;;;;;-0.82;100.00;102624.50;4961999;28;20150;-81
2022/01/11 04:14:21;;;;;;;158.95;42.15;;;;;;;-0.83;100.00;102625.38;4961372;28;20094;-80
2022/01/11 04:16:48;;;;;;;150.82;42.05;;;;;;;-0.87;100.00;102626.31;4959399;28;20460;-79
2022/01/11 04:19:15;;;;;;;137.95;41.40;;;;;;;-0.71;100.00;102625.97;4958632;28;20245;-80
2022/01/11 04:21:43;;;;;;;136.80;40.85;;;;;;;-0.64;100.00;102626.66;4959684;28;20083;-80
2022/01/11 04:24:11;;;;;;;167.45;44.50;;;;;;;-0.82;100.00;102630.50;4959079;28;20051;-79
2022/01/11 04:26:38;;;;;;;160.20;44.72;;;;;;;-0.81;100.00;102627.03;4959059;28;20059;-80
2022/01/11 04:29:05;;;;;;;177.57;45.05;;;;;;;-0.94;100.00;102619.63;4958512;28;20051;-81
2022/01/11 04:31:32;;;;;;;165.98;41.30;;;;;;;-0.89;100.00;102620.38;4958508;28;20134;-81
2022/01/11 04:33:59;;;;;;;160.57;46.00;;;;;;;-0.86;100.00;102622.88;4958499;28;20053;-79
2022/01/11 04:36:26;;;;;;;163.77;44.38;;;;;;;-0.88;100.00;102619.50;4960358;28;20059;-79
2022/01/11 04:38:54;;;;;;;141.73;41.92;;;;;;;-0.74;100.00;102614.91;4960725;28;20051;-79
2022/01/11 04:41:22;;;;;;;188.50;44.85;;;;;;;-0.83;100.00;102618.53;4959491;28;20133;-79
2022/01/11 04:43:49;;;;;;;189.88;45.80;;;;;;;-0.88;100.00;102619.50;4959970;28;20427;-79
2022/01/11 04:46:18;;;;;;;159.98;43.50;;;;;;;-0.90;100.00;102614.38;4961895;28;20057;-79
2022/01/11 04:48:45;;;;;;;160.00;43.92;;;;;;;-0.85;100.00;102615.13;4963004;28;20583;-79
2022/01/11 04:51:11;;;;;;;154.52;42.78;;;;;;;-0.81;100.00;102627.03;4969032;28;20079;-80
2022/01/11 04:53:38;;;;;;;178.85;45.28;;;;;;;-0.84;100.00;102632.25;4971522;28;20069;-79
2022/01/11 04:56:07;;;;;;;168.43;45.72;;;;;;;-0.86;100.00;102628.03;4972742;28;20063;-80
2022/01/11 04:58:34;;;;;;;176.80;43.88;;;;;;;-0.85;100.00;102622.00;4971437;28;20063;-79
2022/01/11 05:01:01;;;;;;;161.27;44.83;;;;;;;-0.88;100.00;102620.34;4967407;28;20074;-79
2022/01/11 05:03:28;;;;;;;166.65;45.15;;;;;;;-0.82;100.00;102624.50;4966903;28;20071;-80
2022/01/11 05:05:55;;;;;;;149.68;44.03;;;;;;;-0.90;100.00;102631.53;4968398;28;20111;-82
2022/01/11 05:08:21;;;;;;;176.15;43.35;;;;;;;-0.85;100.00;102634.84;4968868;28;20086;-81
2022/01/11 05:10:48;;;;;;;169.20;41.92;;;;;;;-0.85;100.00;102630.56;4974140;28;20047;-81
2022/01/11 05:13:18;;;;;;;156.88;42.88;;;;;;;-0.79;100.00;102639.84;4973494;28;20115;-81
2022/01/11 05:15:45;;;;;;;183.10;42.15;;;;;;;-0.83;100.00;102633.09;4973927;28;20074;-81
2022/01/11 05:18:12;;;;;;;197.23;42.30;;;;;;;-0.89;100.00;102643.50;4974595;28;20058;-80
2022/01/11 05:20:40;;;;;;;152.75;42.67;;;;;;;-0.88;100.00;102651.19;4973445;28;20082;-82
2022/01/11 05:23:08;;;;;;;148.60;41.00;;;;;;;-0.90;100.00;102649.53;4976352;28;20051;-84
2022/01/11 05:25:35;;;;;;;139.80;41.05;;;;;;;-0.91;100.00;102647.84;4971190;28;20066;-81
2022/01/11 05:28:01;;;;;;;133.65;41.53;;;;;;;-0.94;100.00;102646.19;4963198;28;20093;-81
2022/01/11 05:30:33;;;;;;;157.13;42.75;;;;;;;-0.93;100.00;102652.16;4964888;28;20119;-82
2022/01/11 05:32:59;;;;;;;123.90;39.70;;;;;;;-0.84;100.00;102646.81;4964295;28;20054;-82
2022/01/11 05:35:26;;;;;;;127.72;38.10;;;;;;;-0.82;100.00;102643.34;4963359;28;20082;-81
2022/01/11 05:37:56;;;;;;;137.60;40.70;;;;;;;-0.86;100.00;102664.00;4961683;28;20130;-81
2022/01/11 05:40:23;;;;;;;132.45;39.60;;;;;;;-0.95;100.00;102654.78;4962834;28;20090;-81
2022/01/11 05:42:50;;;;;;;156.00;38.63;;;;;;;-0.98;100.00;102657.44;4962743;28;20130;-81
2022/01/11 05:45:20;;;;;;;154.38;39.17;;;;;;;-0.96;100.00;102670.25;4964327;28;20051;-80
2022/01/11 05:47:52;;;;;;;139.48;42.20;;;;;;;-0.96;100.00;102672.81;4962388;28;20392;-80
2022/01/11 05:50:20;;;;;;;103.72;32.75;;;;;;;-0.98;100.00;102664.28;5002046;28;20081;-80
2022/01/11 05:52:50;;;;;;;129.13;39.17;;;;;;;-0.90;100.00;102667.50;5001346;28;20527;-81
2022/01/11 05:55:18;;;;;;;140.35;39.35;;;;;;;-1.02;100.00;102666.94;5001268;28;20073;-80
2022/01/11 05:57:57;;;;;;;131.07;38.00;;;;;;;-0.97;100.00;102671.13;5002283;28;20085;-80
2022/01/11 06:00:48;;;;;;;134.02;38.60;;;;;;;-1.13;100.00;102635.47;4984335;28;20046;-80
2022/01/11 06:03:30;;;;;;;132.82;38.38;;;;;;;-1.05;100.00;102640.44;4977368;28;20526;-81
2022/01/11 06:06:14;;;;;;;151.45;39.67;;;;;;;-0.92;100.00;102682.13;4985683;28;20054;-82
2022/01/11 06:11:31;;;;;;;152.40;39.05;;;;;;;-1.14;100.00;102659.47;4989413;28;20053;-81
2022/01/11 06:13:58;;;;;;;152.90;40.67;;;;;;;-1.02;100.00;102673.78;4999887;28;20054;-82
2022/01/11 06:16:25;;;;;;;172.73;42.50;;;;;;;-1.13;100.00;102656.03;4999218;28;20054;-83
2022/01/11 06:18:54;;;;;;;187.50;40.55;;;;;;;-1.06;100.00;102687.56;5000086;28;20066;-81
2022/01/11 06:21:22;;;;;;;182.38;39.30;;;;;;;-1.26;100.00;102657.13;5000119;28;20134;-82
2022/01/11 06:23:48;;;;;;;164.93;39.58;;;;;;;-1.14;100.00;102680.00;5000865;28;20050;-81
2022/01/11 06:26:15;;;;;;;158.02;39.10;;;;;;;-1.14;100.00;102681.75;4999431;28;20129;-81
2022/01/11 06:28:43;;;;;;;179.60;39.20;;;;;;;-1.13;100.00;102689.41;5000228;28;20074;-81
2022/01/11 06:31:10;;;;;;;144.75;39.72;;;;;;;-1.15;100.00;102688.59;5000455;28;20519;-81
2022/01/11 06:33:37;;;;;;;151.85;38.25;;;;;;;-1.13;100.00;102694.56;5000325;28;20483;-82
2022/01/11 06:36:09;;;;;;;172.38;39.60;;;;;;;-1.19;100.00;102689.53;5001747;28;20078;-81
2022/01/11 06:38:37;;;;;;;146.93;39.33;;;;;;;-1.12;100.00;102682.56;4998646;28;20050;-82
2022/01/11 06:41:06;;;;;;;148.25;37.40;;;;;;;-1.08;100.00;102689.31;5005495;28;20137;-82
2022/01/11 06:43:33;;;;;;;150.43;39.08;;;;;;;-1.10;100.00;102699.63;5000532;28;20068;-82
2022/01/11 06:45:59;;;;;;;147.60;40.05;;;;;;;-1.18;100.00;102687.81;4999315;28;20138;-80
2022/01/11 06:48:26;;;;;;;155.23;41.60;;;;;;;-1.14;100.00;102692.88;4998501;28;20479;-82
2022/01/11 06:50:53;;;;;;;143.05;39.92;;;;;;;-0.97;100.00;102692.53;5000955;28;20050;-81
2022/01/11 06:53:21;;;;;;;184.48;40.83;;;;;;;-1.15;100.00;102696.31;5000336;28;20062;-83
2022/01/11 06:55:53;;;;;;;190.10;40.72;;;;;;;-1.19;100.00;102694.66;5000898;28;20051;-82
2022/01/11 06:58:20;;;;;;;174.43;40.47;;;;;;;-1.24;100.00;102703.34;4999513;28;20060;-83
2022/01/11 07:00:47;;;;;;;187.93;39.42;;;;;;;-1.17;100.00;102703.19;4998725;28;20051;-81
2022/01/11 07:03:15;;;;;;;164.88;39.13;;;;;;;-1.17;100.00;102710.06;4981695;28;20403;-81
2022/01/11 07:05:42;;;;;;;185.93;39.95;;;;;;;-1.18;100.00;102719.50;4982301;28;20067;-80
2022/01/11 07:08:11;;;;;;;212.50;40.90;;;;;;;-1.24;100.00;102704.19;4981076;28;20079;-81
2022/01/11 07:10:39;;;;;;;173.32;38.40;;;;;;;-1.15;100.00;102714.28;4981063;28;20494;-81
2022/01/11 07:13:06;;;;;;;187.95;42.90;;;;;;;-1.29;100.00;102705.16;4979907;28;20375;-82
2022/01/11 07:15:33;;;;;;;165.32;39.88;;;;;;;-1.24;100.00;102714.47;4979771;28;20550;-80
2022/01/11 07:18:04;;;;;;;250.45;42.95;;;;;;;-1.32;100.00;102729.16;4979410;28;20504;-80
2022/01/11 07:20:30;;;;;;;203.55;41.95;;;;;;;-1.34;100.00;102723.22;4980004;28;20074;-80
2022/01/11 07:22:57;;;;;;;189.13;42.45;;;;;;;-1.29;100.00;102726.53;4979889;28;20134;-81
2022/01/11 07:25:25;;;;;;;227.20;42.78;;;;;;;-1.30;100.00;102713.72;4979261;28;20453;-81
2022/01/11 07:27:53;;;;;;;161.43;39.10;;;;;;;-1.23;100.00;102729.00;4979803;28;20089;-81
2022/01/11 07:30:19;;;;;;;190.48;42.72;;;;;;;-1.19;100.00;102732.34;4980594;28;20126;-82
2022/01/11 07:32:46;;;;;;;250.15;42.65;;;;;;;-1.28;100.00;102733.38;4980295;28;20123;-81
2022/01/11 07:35:13;;;;;;;182.68;39.95;;;;;;;-1.27;100.00;102734.22;4980376;28;20079;-81
2022/01/11 07:37:39;;;;;;;177.65;40.90;;;;;;;-1.24;100.00;102742.72;4984407;28;20111;-82
2022/01/11 07:40:07;;;;;;;185.70;41.63;;;;;;;-1.23;100.00;102739.28;4981705;28;20086;-81
2022/01/11 07:42:33;;;;;;;199.05;52.47;;;;;;;-1.14;100.00;102741.66;4981723;28;20081;-82
2022/01/11 07:45:01;;;;;;;155.40;38.97;;;;;;;-1.16;100.00;102745.16;4982410;28;20082;-81
2022/01/11 07:47:28;;;;;;;159.88;41.50;;;;;;;-1.12;100.00;102744.22;4986124;28;20085;-82
2022/01/11 07:49:55;;;;;;;209.38;42.40;;;;;;;-1.22;100.00;102756.38;5003324;28;20137;-81
2022/01/11 07:52:22;;;;;;;190.90;41.30;;;;;;;-1.25;100.00;102753.88;5003684;28;20050;-81
2022/01/11 07:54:49;;;;;;;175.68;40.47;;;;;;;-1.24;100.00;102759.84;4982135;28;20043;-81
2022/01/11 07:57:15;;;;;;;143.13;41.20;;;;;;;-1.10;100.00;102765.59;4996548;28;20057;-81
2022/01/11 07:59:42;;;;;;;190.13;41.72;;;;;;;-1.17;100.00;102770.00;5004072;28;20085;-80
2022/01/11 08:02:10;;;;;;;188.75;42.92;;;;;;;-1.18;100.00;102757.16;5001212;28;20481;-81
2022/01/11 08:04:37;;;;;;;167.80;39.85;;;;;;;-1.21;100.00;102762.38;5003787;28;20050;-82
2022/01/11 08:07:05;;;;;;;175.75;41.25;;;;;;;-1.15;100.00;102764.81;5000950;28;20118;-79
2022/01/11 08:09:32;;;;;;;171.98;40.60;;;;;;;-1.10;100.00;102758.72;4998531;28;20061;-79
2022/01/11 08:11:59;;;;;;;161.93;38.92;;;;;;;-1.07;100.00;102763.81;4999706;28;20050;-80
2022/01/11 08:14:29;;;;;;;189.63;42.90;;;;;;;-1.06;100.00;102755.22;4999102;28;20050;-80
2022/01/11 08:16:58;;;;;;;159.75;40.72;;;;;;;-0.99;100.00;102762.81;4999583;28;20074;-78
2022/01/11 08:19:28;;;;;;;155.32;40.88;;;;;;;-0.96;100.00;102770.47;4998364;28;20058;-80
2022/01/11 08:21:59;;;;;;;158.48;39.83;;;;;;;-0.95;100.00;102767.88;4998179;28;20507;-76
2022/01/11 08:24:29;;;;;;;166.30;38.28;;;;;;;-1.04;100.00;102768.88;4997521;28;20104;-80
2022/01/11 08:26:58;;;;;;;204.65;38.10;;;;;;;-1.18;100.00;102776.00;4997554;28;20519;-80
2022/01/11 08:29:24;;;;;;;209.68;42.20;;;;;;;-1.22;100.00;102769.22;4998773;28;20114;-81
2022/01/11 08:31:52;;;;;;;201.32;39.50;;;;;;;-1.20;100.00;102766.63;4980738;28;20518;-80
2022/01/11 08:34:19;;;;;;;207.35;40.58;;;;;;;-1.21;100.00;102760.66;4979654;28;20043;-81
2022/01/11 08:36:50;;;;;;;176.70;41.75;;;;;;;-1.03;100.00;102762.88;4983711;28;20456;-80
2022/01/11 08:39:18;;;;;;;245.32;42.40;;;;;;;-1.09;100.00;102775.00;4984637;28;20538;-82
2022/01/11 08:41:45;;;;;;;233.23;42.28;;;;;;;-1.08;100.00;102774.13;4993274;28;20050;-80
2022/01/11 08:44:11;;;;;;;280.80;41.70;;;;;;;-1.22;100.00;102784.63;4992324;28;20058;-80
2022/01/11 08:46:40;;;;;;;190.70;41.47;;;;;;;-1.10;100.00;102778.44;4992839;28;20050;-81
2022/01/11 08:49:07;;;;;;;187.60;42.08;;;;;;;-1.05;100.00;102780.03;4991635;28;20053;-81
2022/01/11 08:51:34;;;;;;;263.70;43.03;;;;;;;-1.13;100.00;102788.75;4991485;28;20027;-81
2022/01/11 08:54:02;;;;;;;217.77;41.88;;;;;;;-1.17;100.00;102793.09;4989966;28;20086;-80
2022/01/11 08:56:28;;;;;;;194.55;39.35;;;;;;;-1.20;100.00;102800.88;4980647;28;20182;-80
2022/01/11 08:58:55;;;;;;;167.45;39.40;;;;;;;-1.19;100.00;102794.00;4984132;28;20093;-81
2022/01/11 09:01:23;;;;;;;246.52;42.38;;;;;;;-1.19;100.00;102800.00;4973639;28;20095;-81
2022/01/11 09:03:50;;;;;;;212.38;42.55;;;;;;;-1.17;100.00;102797.41;4963506;28;20061;-82
2022/01/11 09:06:16;;;;;;;173.20;38.58;;;;;;;-1.09;100.00;102796.38;4984296;28;20146;-81
2022/01/11 09:08:43;;;;;;;204.10;39.22;;;;;;;-1.19;100.00;102797.44;4983013;28;20523;-82
2022/01/11 09:11:11;;;;;;;170.85;39.67;;;;;;;-1.14;100.00;102805.06;4983542;28;20111;-82
2022/01/11 09:13:38;;;;;;;154.95;37.05;;;;;;;-1.15;100.00;102804.22;4982237;28;20069;-82
2022/01/11 09:16:06;;;;;;;179.18;37.55;;;;;;;-1.18;100.00;102804.25;4980039;28;20050;-81
2022/01/11 09:18:32;;;;;;;181.18;40.30;;;;;;;-1.13;100.00;102797.31;4977647;28;20086;-80
2022/01/11 09:21:00;;;;;;;161.75;39.47;;;;;;;-0.99;100.00;102809.06;4980965;28;20130;-81
2022/01/11 09:23:27;;;;;;;163.60;39.78;;;;;;;-0.93;100.00;102814.91;4983388;28;20086;-81
2022/01/11 09:25:54;;;;;;;205.13;41.22;;;;;;;-1.16;100.00;102812.78;4982235;28;20133;-81
2022/01/11 09:28:23;;;;;;;162.73;40.63;;;;;;;-1.12;100.00;102805.88;4982849;28;20110;-82
2022/01/11 09:30:50;;;;;;;163.77;39.97;;;;;;;-1.09;100.00;102814.38;4982767;28;20118;-81
2022/01/11 09:33:17;;;;;;;147.13;39.95;;;;;;;-1.01;100.00;102807.38;4981987;28;20138;-80
2022/01/11 09:35:44;;;;;;;162.93;40.60;;;;;;;-1.08;100.00;102810.94;4980779;28;20069;-80
2022/01/11 09:38:11;;;;;;;166.07;40.50;;;;;;;-1.08;100.00;102805.78;4983554;28;20110;-80
2022/01/11 09:40:38;;;;;;;154.07;41.65;;;;;;;-1.03;100.00;102803.97;4982952;28;20606;-80
2022/01/11 09:43:04;;;;;;;133.68;39.22;;;;;;;-1.08;100.00;102805.78;4983749;28;20506;-80
2022/01/11 09:45:33;;;;;;;143.52;39.70;;;;;;;-1.06;100.00;102806.63;4981619;28;20749;-80
2022/01/11 09:48:00;;;;;;;128.85;38.13;;;;;;;-0.98;100.00;102811.63;4981916;28;20589;-81
2022/01/11 09:50:26;;;;;;;159.15;42.15;;;;;;;-0.94;100.00;102810.66;4980430;28;20078;-78
2022/01/11 09:52:54;;;;;;;140.75;40.03;;;;;;;-0.71;100.00;102812.78;4980568;28;20086;-79
2022/01/11 09:55:20;;;;;;;132.48;39.25;;;;;;;-0.68;100.00;102817.88;4982227;28;20074;-80
2022/01/11 09:57:49;;;;;;;122.35;37.30;;;;;;;-0.81;100.00;102817.25;4984522;28;20380;-80
2022/01/11 10:00:16;;;;;;;124.07;37.53;;;;;;;-0.80;100.00;102823.25;4985890;28;20053;-81
2022/01/11 10:02:46;;;;;;;130.65;38.17;;;;;;;-0.80;100.00;102820.66;4983381;28;20129;-80
2022/01/11 10:05:14;;;;;;;117.60;36.63;;;;;;;-0.78;100.00;102818.91;4985701;28;20061;-81
2022/01/11 10:07:42;;;;;;;119.05;37.40;;;;;;;-0.75;100.00;102817.13;4985252;28;20123;-80
2022/01/11 10:10:13;;;;;;;122.03;36.20;;;;;;;-0.78;100.00;102813.78;4985021;28;20047;-81
2022/01/11 10:12:45;;;;;;;126.53;38.70;;;;;;;-0.56;100.00;102819.34;4986143;28;20076;-81
2022/01/11 10:15:13;;;;;;;102.90;37.33;;;;;;;-0.53;100.00;102817.56;4989965;28;20178;-81
2022/01/11 10:17:42;;;;;;;103.07;36.03;;;;;;;-0.31;99.83;102806.81;4988855;28;20071;-81
2022/01/11 10:20:13;;;;;;;107.35;36.53;;;;;;;-0.06;99.36;102813.13;4989335;28;20078;-81
2022/01/11 10:22:47;;;;;;;97.28;35.30;;;;;;;-0.29;98.65;102811.03;4986576;28;20114;-81
2022/01/11 10:25:14;;;;;;;97.93;33.60;;;;;;;-0.46;98.73;102813.13;4986230;28;20546;-80
2022/01/11 10:27:40;;;;;;;127.07;35.40;;;;;;;-0.50;99.29;102814.94;4985036;28;20156;-81
2022/01/11 10:30:09;;;;;;;99.05;34.45;;;;;;;-0.50;99.02;102816.66;4983332;28;20084;-80
2022/01/11 10:32:37;;;;;;;111.38;36.55;;;;;;;-0.62;99.87;102817.75;4982320;28;20090;-79
2022/01/11 10:35:06;;;;;;;122.93;36.65;;;;;;;-0.61;99.71;102809.16;4979646;28;20499;-79
2022/01/11 10:37:37;;;;;;;123.22;35.38;;;;;;;-0.56;100.00;102807.34;4980961;28;20105;-78
2022/01/11 10:40:13;;;;;;;124.25;38.13;;;;;;;-0.51;100.00;102809.81;4982059;28;20117;-80
2022/01/11 10:42:45;;;;;;;165.88;37.75;;;;;;;-0.54;100.00;102797.03;4979342;28;20162;-80
2022/01/11 10:45:13;;;;;;;175.17;39.97;;;;;;;-0.57;100.00;102805.66;4984908;28;20050;-80
2022/01/11 10:47:42;;;;;;;115.35;39.20;;;;;;;-0.44;99.69;102803.63;4985223;28;20088;-80
2022/01/11 10:50:12;;;;;;;100.18;36.78;;;;;;;-0.36;99.55;102805.19;4980547;28;20106;-78
2022/01/11 10:52:42;;;;;;;99.85;37.58;;;;;;;-0.25;99.90;102806.69;4978906;28;20493;-79
2022/01/11 10:55:13;;;;;;;108.90;37.50;;;;;;;0.00;99.36;102805.25;4972101;28;20049;-78
2022/01/11 10:57:41;;;;;;;105.93;38.65;;;;;;;-0.03;99.00;102807.91;4953702;29;20067;-79
2022/01/11 11:00:21;;;;;;;91.82;35.30;;;;;;;0.17;98.66;102800.53;4955028;29;20054;-80
2022/01/11 11:02:55;;;;;;;99.70;38.47;;;;;;;-0.10;98.93;102799.47;4953386;29;20154;-79
2022/01/11 11:05:29;;;;;;;95.75;35.55;;;;;;;-0.19;98.83;102811.69;4949420;29;20055;-80
2022/01/11 11:08:04;;;;;;;92.50;36.28;;;;;;;-0.11;98.47;102818.38;4955988;28;20055;-79